Time;durP1;ratioP1;P1;durP2;ratioP2;P2;SDS_P1;SDS_P2;PMS_P1;PMS_P2;Temp;Humidity;BMP_temperature;BMP_pressure;BME280_temperature;BME280_humidity;BME280_pressure;Samples;Min_cycle;Max_cycle;Signal;HPM_P1;HPM_P2
2023/10/20 00:01:42;;;;;;;19.15;13.52;;;8.50;99.90;;;;;;4977539;28;88827;-31
2023/10/20 00:04:08;;;;;;;28.50;16.25;;;8.50;99.90;;;;;;4965649;28;90214;-33
2023/10/20 00:06:33;;;;;;;27.63;17.42;;;8.50;99.90;;;;;;4977309;28;89668;-31
2023/10/20 00:08:59;;;;;;;18.90;13.05;;;8.50;99.90;;;;;;4973488;28;89947;-33
2023/10/20 00:11:28;;;;;;;19.00;12.85;;;8.50;99.90;;;;;;4950426;28;90340;-32
2023/10/20 00:13:53;;;;;;;24.45;13.18;;;8.50;99.90;;;;;;4976625;28;91599;-31
2023/10/20 00:16:27;;;;;;;21.92;15.57;;;8.50;99.90;;;;;;4977843;28;89768;-31
2023/10/20 00:18:52;;;;;;;24.80;14.38;;;8.50;99.90;;;;;;4977147;28;87910;-34
2023/10/20 00:21:18;;;;;;;21.30;14.68;;;8.50;99.90;;;;;;4965956;28;89536;-32
2023/10/20 00:23:44;;;;;;;20.50;12.07;;;8.50;99.90;;;;;;4940646;28;90722;-34
2023/10/20 00:26:10;;;;;;;30.02;16.15;;;8.50;99.90;;;;;;4958608;28;89648;-32
2023/10/20 00:28:36;;;;;;;24.13;13.75;;;8.50;99.90;;;;;;4971408;28;88881;-33
2023/10/20 00:31:02;;;;;;;23.83;12.82;;;8.50;99.90;;;;;;4972073;28;89484;-32
2023/10/20 00:33:27;;;;;;;27.35;14.00;;;8.40;99.90;;;;;;4977239;28;89000;-31
2023/10/20 00:35:53;;;;;;;24.60;13.30;;;8.40;99.90;;;;;;4976967;28;92207;-33
2023/10/20 00:38:19;;;;;;;29.98;15.23;;;8.40;99.90;;;;;;4971404;28;90794;-34
2023/10/20 00:40:48;;;;;;;28.42;15.35;;;8.40;99.90;;;;;;4970209;28;89406;-34
2023/10/20 00:43:14;;;;;;;25.80;12.05;;;8.40;99.90;;;;;;4964931;28;89156;-30
2023/10/20 00:45:42;;;;;;;49.25;17.55;;;8.40;99.90;;;;;;4963732;28;89053;-34
2023/10/20 00:48:08;;;;;;;23.77;15.70;;;8.40;99.90;;;;;;4964794;28;89403;-32
2023/10/20 00:50:34;;;;;;;36.38;17.00;;;8.40;99.90;;;;;;4963832;28;89035;-33
2023/10/20 00:53:00;;;;;;;26.50;15.18;;;8.40;99.90;;;;;;4977214;28;90485;-33
2023/10/20 00:55:25;;;;;;;22.35;13.10;;;8.40;99.90;;;;;;4977816;28;89753;-34
2023/10/20 00:57:53;;;;;;;21.02;15.98;;;8.40;99.90;;;;;;4976277;28;89335;-30
2023/10/20 01:00:20;;;;;;;21.23;12.25;;;8.40;99.90;;;;;;4977358;28;90303;-31
2023/10/20 01:02:46;;;;;;;29.45;15.77;;;8.40;99.90;;;;;;4976924;28;90358;-33
2023/10/20 01:05:14;;;;;;;26.67;15.02;;;8.40;99.90;;;;;;4977991;28;89507;-34
2023/10/20 01:07:41;;;;;;;22.50;12.60;;;8.40;99.90;;;;;;4976958;28;89471;-32
2023/10/20 01:10:09;;;;;;;14.77;10.90;;;8.40;99.90;;;;;;4977221;28;88314;-31
2023/10/20 01:12:35;;;;;;;38.20;19.10;;;8.40;99.90;;;;;;4969940;28;90110;-30
2023/10/20 01:15:07;;;;;;;32.45;15.35;;;8.40;99.90;;;;;;4971245;28;89599;-32
2023/10/20 01:17:33;;;;;;;29.30;19.60;;;8.40;99.90;;;;;;4970181;28;89213;-37
2023/10/20 01:20:07;;;;;;;32.92;16.23;;;8.40;99.90;;;;;;4972773;28;89123;-35
2023/10/20 01:22:34;;;;;;;31.75;16.92;;;8.30;99.90;;;;;;4979531;28;90258;-33
2023/10/20 01:24:59;;;;;;;23.08;14.07;;;8.30;99.90;;;;;;4958845;28;90398;-31
2023/10/20 01:27:25;;;;;;;23.08;14.48;;;8.40;99.90;;;;;;4970010;28;90175;-31
2023/10/20 01:29:51;;;;;;;25.13;15.60;;;8.30;99.90;;;;;;4976996;28;89193;-32
2023/10/20 01:32:17;;;;;;;24.48;13.23;;;8.40;99.90;;;;;;4969525;28;90064;-34
2023/10/20 01:34:42;;;;;;;26.55;15.35;;;8.30;99.90;;;;;;4979510;28;89352;-32
2023/10/20 01:37:11;;;;;;;24.80;15.80;;;8.40;99.90;;;;;;4979998;28;89506;-34
2023/10/20 01:39:38;;;;;;;24.10;16.02;;;8.40;99.90;;;;;;4979591;28;88192;-32
2023/10/20 01:42:03;;;;;;;26.85;16.85;;;8.30;99.90;;;;;;4980316;28;90073;-32
2023/10/20 01:44:29;;;;;;;26.70;15.18;;;8.30;99.90;;;;;;4979874;28;89835;-32
2023/10/20 01:46:54;;;;;;;22.08;15.32;;;8.30;99.90;;;;;;4979354;28;90543;-32
2023/10/20 01:49:20;;;;;;;25.08;13.93;;;8.30;99.90;;;;;;4979063;28;88389;-32
2023/10/20 01:51:46;;;;;;;33.63;18.40;;;8.30;99.90;;;;;;4980071;28;89446;-30
2023/10/20 01:54:12;;;;;;;26.40;15.13;;;8.30;99.90;;;;;;4969439;28;89580;-33
2023/10/20 01:56:37;;;;;;;24.05;14.00;;;8.30;99.90;;;;;;4959844;28;90018;-33
2023/10/20 01:59:06;;;;;;;30.00;18.35;;;8.30;99.90;;;;;;4960399;28;89238;-31
2023/10/20 02:01:31;;;;;;;42.97;26.15;;;8.30;99.90;;;;;;4976744;28;89103;-35
2023/10/20 02:03:57;;;;;;;26.42;17.67;;;8.30;99.90;;;;;;4969724;28;89809;-32
2023/10/20 02:06:23;;;;;;;19.63;12.73;;;8.30;99.90;;;;;;4959169;28;89689;-32
2023/10/20 02:08:48;;;;;;;52.53;16.13;;;8.30;99.90;;;;;;4969585;28;89216;-34
2023/10/20 02:11:15;;;;;;;24.92;13.52;;;8.30;99.90;;;;;;4969159;28;90332;-33
2023/10/20 02:13:42;;;;;;;18.98;13.98;;;8.30;99.90;;;;;;4978756;28;90153;-31
2023/10/20 02:16:10;;;;;;;19.80;12.80;;;8.30;99.90;;;;;;4980365;28;90489;-34
2023/10/20 02:18:36;;;;;;;24.20;14.77;;;8.30;99.90;;;;;;4979584;28;88537;-32
2023/10/20 02:21:07;;;;;;;30.58;15.50;;;8.30;99.90;;;;;;4979198;28;90108;-31
2023/10/20 02:23:40;;;;;;;23.70;14.30;;;8.30;99.90;;;;;;4978728;28;90841;-34
2023/10/20 02:26:09;;;;;;;21.60;14.80;;;8.30;99.90;;;;;;4979900;28;88486;-31
2023/10/20 02:28:36;;;;;;;23.95;13.75;;;8.30;99.90;;;;;;4979257;28;89289;-31
2023/10/20 02:31:10;;;;;;;23.20;13.18;;;8.30;99.90;;;;;;4978560;28;90022;-34
2023/10/20 02:33:36;;;;;;;20.20;15.52;;;8.30;99.90;;;;;;4979271;28;89253;-34
2023/10/20 02:36:01;;;;;;;19.90;12.02;;;8.30;99.90;;;;;;4979156;28;90178;-31
2023/10/20 02:38:27;;;;;;;24.17;15.95;;;8.40;99.90;;;;;;4979046;28;89559;-32
2023/10/20 02:40:54;;;;;;;19.70;9.73;;;8.30;99.90;;;;;;4972842;28;90191;-30
2023/10/20 02:43:23;;;;;;;23.30;17.13;;;8.30;99.90;;;;;;4979260;28;91926;-33
2023/10/20 02:45:51;;;;;;;26.15;16.45;;;8.30;99.90;;;;;;4977470;28;89777;-34
2023/10/20 02:48:16;;;;;;;21.70;11.00;;;8.30;99.90;;;;;;4978250;28;89809;-34
2023/10/20 02:50:42;;;;;;;29.17;13.70;;;8.30;99.90;;;;;;4978514;28;89147;-31
2023/10/20 02:53:08;;;;;;;18.38;14.02;;;8.30;99.90;;;;;;4978302;28;89749;-33
2023/10/20 02:55:33;;;;;;;21.05;12.82;;;8.30;99.90;;;;;;4979200;28;89585;-32
2023/10/20 02:58:00;;;;;;;18.02;12.25;;;8.30;99.90;;;;;;4977938;28;89275;-33
2023/10/20 03:00:26;;;;;;;17.60;12.60;;;8.20;99.90;;;;;;4978828;28;90146;-34
2023/10/20 03:02:53;;;;;;;16.38;10.93;;;8.30;99.90;;;;;;4977720;28;91129;-33
2023/10/20 03:05:20;;;;;;;11.63;9.45;;;8.30;99.90;;;;;;4978132;28;90420;-33
2023/10/20 03:07:46;;;;;;;23.25;13.73;;;8.30;99.90;;;;;;4976653;28;88133;-30
2023/10/20 03:10:12;;;;;;;18.67;13.73;;;8.20;99.90;;;;;;4978551;28;90250;-31
2023/10/20 03:12:38;;;;;;;17.13;9.95;;;8.30;99.90;;;;;;4978274;28;89695;-33
2023/10/20 03:15:06;;;;;;;20.48;12.32;;;8.30;99.90;;;;;;4965489;28;89790;-32
2023/10/20 03:17:32;;;;;;;13.43;10.13;;;8.20;99.90;;;;;;4967246;28;90056;-34
2023/10/20 03:19:57;;;;;;;25.35;12.95;;;8.30;99.90;;;;;;4975517;28;90332;-33
2023/10/20 03:22:23;;;;;;;13.00;9.65;;;8.30;99.90;;;;;;4967813;28;89660;-33
2023/10/20 03:24:48;;;;;;;17.50;12.13;;;8.20;99.90;;;;;;4977205;28;89799;-33
2023/10/20 03:27:14;;;;;;;17.08;10.18;;;8.30;99.90;;;;;;4966621;28;90447;-34
2023/10/20 03:29:40;;;;;;;12.48;10.38;;;8.20;99.90;;;;;;4978172;28;89291;-32
2023/10/20 03:32:05;;;;;;;18.55;12.90;;;8.20;99.90;;;;;;4978048;28;89721;-30
2023/10/20 03:34:34;;;;;;;23.60;14.80;;;8.30;99.90;;;;;;4977148;28;89773;-33
2023/10/20 03:37:00;;;;;;;19.80;14.75;;;8.30;99.90;;;;;;4978368;28;87733;-33
2023/10/20 03:39:27;;;;;;;14.98;11.15;;;8.30;99.90;;;;;;4978108;28;90207;-31
2023/10/20 03:41:53;;;;;;;23.23;16.33;;;8.30;99.90;;;;;;4959968;28;89423;-34
2023/10/20 03:44:21;;;;;;;14.40;11.15;;;8.20;99.90;;;;;;4962223;28;89819;-29
2023/10/20 03:46:51;;;;;;;22.60;15.23;;;8.20;99.90;;;;;;4968760;28;89761;-31
2023/10/20 03:49:18;;;;;;;19.15;13.98;;;8.20;99.90;;;;;;4960820;28;90125;-32
2023/10/20 03:51:49;;;;;;;19.58;12.27;;;8.30;99.90;;;;;;4968213;28;90255;-30
2023/10/20 03:54:15;;;;;;;16.60;11.70;;;8.20;99.90;;;;;;4977258;28;90240;-32
2023/10/20 03:56:42;;;;;;;24.40;18.60;;;8.20;99.90;;;;;;4977190;28;89870;-33
2023/10/20 03:59:14;;;;;;;20.85;9.52;;;8.20;99.90;;;;;;4978380;28;90304;-33
2023/10/20 04:01:40;;;;;;;17.30;12.40;;;8.20;99.90;;;;;;4966145;28;89315;-31
2023/10/20 04:04:09;;;;;;;20.23;11.75;;;8.20;99.90;;;;;;4970651;28;89200;-31
2023/10/20 04:06:39;;;;;;;20.90;11.90;;;8.20;99.90;;;;;;4977154;28;88603;-29
2023/10/20 04:09:09;;;;;;;16.95;10.80;;;8.20;99.90;;;;;;4978319;28;89738;-32
2023/10/20 04:11:35;;;;;;;21.48;8.90;;;8.20;99.90;;;;;;4970726;28;89705;-32
2023/10/20 04:14:06;;;;;;;27.00;15.13;;;8.20;99.90;;;;;;4959232;28;88742;-34
2023/10/20 04:16:39;;;;;;;18.90;11.43;;;8.20;99.90;;;;;;4970653;28;89081;-33
2023/10/20 04:19:15;;;;;;;17.50;10.48;;;8.20;99.90;;;;;;4966075;28;90320;-31
2023/10/20 04:21:43;;;;;;;16.95;8.85;;;8.20;99.90;;;;;;4962073;28;89451;-32
2023/10/20 04:24:12;;;;;;;16.33;14.50;;;8.20;99.90;;;;;;4973369;28;89988;-31
2023/10/20 04:26:41;;;;;;;19.90;11.98;;;8.20;99.90;;;;;;4964096;28;88162;-31
2023/10/20 04:51:04;;;;;;;18.70;10.80;;;8.10;99.90;;;;;;4964178;28;90940;-32
2023/10/20 04:53:52;;;;;;;15.90;10.48;;;8.10;99.90;;;;;;4977845;28;89667;-32
2023/10/20 04:59:09;;;;;;;20.00;11.15;;;8.10;99.90;;;;;;4980082;28;88621;-29
2023/10/20 05:01:48;;;;;;;20.55;12.88;;;8.10;99.90;;;;;;4980773;28;89977;-32
2023/10/20 05:04:23;;;;;;;22.02;14.15;;;8.10;99.90;;;;;;4981205;28;90660;-35
2023/10/20 05:06:58;;;;;;;13.30;10.93;;;8.10;99.90;;;;;;4961858;28;89523;-34
2023/10/20 05:09:25;;;;;;;15.07;10.73;;;8.10;99.90;;;;;;4961638;28;88871;-31
2023/10/20 05:11:52;;;;;;;29.38;20.52;;;8.10;99.90;;;;;;4974368;28;89818;-31
2023/10/20 05:14:18;;;;;;;16.50;11.43;;;8.10;99.90;;;;;;4972592;28;88669;-33
2023/10/20 05:16:44;;;;;;;13.40;12.05;;;8.10;99.90;;;;;;4961094;28;89324;-33
2023/10/20 05:19:10;;;;;;;12.65;10.02;;;8.10;99.90;;;;;;4968882;28;89508;-31
2023/10/20 05:21:38;;;;;;;18.67;14.43;;;8.10;99.90;;;;;;4979739;28;90466;-32
2023/10/20 05:24:04;;;;;;;16.42;11.23;;;8.10;99.90;;;;;;4980782;28;89751;-32
2023/10/20 05:26:31;;;;;;;14.52;12.90;;;8.10;99.90;;;;;;4979715;28;89448;-30
2023/10/20 05:28:57;;;;;;;14.18;10.85;;;8.10;99.90;;;;;;4980451;28;89697;-34
2023/10/20 05:31:25;;;;;;;14.63;11.65;;;8.10;99.90;;;;;;4980438;28;89866;-33
2023/10/20 05:33:50;;;;;;;17.83;12.67;;;8.10;99.90;;;;;;4979444;28;90202;-31
2023/10/20 05:36:16;;;;;;;11.77;8.90;;;8.10;99.90;;;;;;4979886;28;88492;-33
2023/10/20 05:38:41;;;;;;;20.77;13.90;;;8.10;99.90;;;;;;4981411;28;89796;-32
2023/10/20 05:41:07;;;;;;;12.80;8.85;;;8.10;99.90;;;;;;4979694;28;90260;-33
2023/10/20 05:43:33;;;;;;;13.43;10.95;;;8.10;99.90;;;;;;4981742;28;89689;-30
2023/10/20 05:45:58;;;;;;;15.63;9.35;;;8.10;99.90;;;;;;4979477;28;89194;-33
2023/10/20 05:48:24;;;;;;;14.02;11.05;;;8.10;99.90;;;;;;4980650;28;88073;-33
2023/10/20 05:50:56;;;;;;;12.27;8.68;;;8.10;99.90;;;;;;5015355;22;90477;-32
2023/10/20 05:53:22;;;;;;;11.50;10.30;;;8.10;99.90;;;;;;4978936;28;89805;-30
2023/10/20 05:55:47;;;;;;;11.23;9.50;;;8.10;99.90;;;;;;4980547;28;89373;-30
2023/10/20 05:58:13;;;;;;;14.20;11.23;;;8.10;99.90;;;;;;4979728;28;88353;-33
2023/10/20 06:00:39;;;;;;;15.35;11.32;;;8.10;99.90;;;;;;4980006;28;89990;-32
2023/10/20 06:03:05;;;;;;;14.20;10.70;;;8.10;99.90;;;;;;4979031;28;89550;-34
2023/10/20 06:05:30;;;;;;;17.75;10.30;;;8.10;99.90;;;;;;4979175;28;88836;-32
2023/10/20 06:07:56;;;;;;;13.32;8.52;;;8.00;99.90;;;;;;4978876;28;89178;-33
2023/10/20 06:10:22;;;;;;;9.02;7.88;;;8.10;99.90;;;;;;4980495;28;89128;-32
2023/10/20 06:12:50;;;;;;;8.73;7.53;;;8.00;99.90;;;;;;4980365;28;91105;-30
2023/10/20 06:15:15;;;;;;;15.13;8.07;;;8.00;99.90;;;;;;4980481;28;89259;-31
2023/10/20 06:17:41;;;;;;;16.38;10.95;;;8.00;99.90;;;;;;4980431;28;89088;-32
2023/10/20 06:20:09;;;;;;;13.10;10.63;;;8.00;99.90;;;;;;4979007;28;89258;-32
2023/10/20 06:22:35;;;;;;;21.30;12.52;;;8.10;99.90;;;;;;4978951;28;90230;-30
2023/10/20 06:25:00;;;;;;;12.52;7.72;;;8.00;99.90;;;;;;4979601;28;90411;-33
2023/10/20 06:27:26;;;;;;;11.25;7.28;;;8.00;99.90;;;;;;4980241;28;89132;-33
2023/10/20 06:32:32;;;;;;;15.60;9.93;;;8.00;99.90;;;;;;4968007;28;90414;-32
2023/10/20 06:35:00;;;;;;;11.10;7.47;;;8.00;99.90;;;;;;4978610;28;89485;-31
2023/10/20 06:40:15;;;;;;;11.27;9.82;;;8.10;99.90;;;;;;4969407;28;90252;-33
2023/10/20 06:42:44;;;;;;;14.63;9.88;;;8.00;99.90;;;;;;4975532;28;90145;-32
2023/10/20 06:45:13;;;;;;;8.98;8.05;;;8.00;99.90;;;;;;4975897;28;90055;-33
2023/10/20 06:47:42;;;;;;;12.63;7.25;;;8.00;99.90;;;;;;4976989;28;90525;-34
2023/10/20 06:50:10;;;;;;;10.20;8.00;;;8.10;99.90;;;;;;4976500;28;91613;-30
2023/10/20 06:52:36;;;;;;;9.52;6.70;;;8.10;99.90;;;;;;4977080;28;89549;-30
2023/10/20 06:55:03;;;;;;;12.20;7.07;;;8.10;99.90;;;;;;4977648;28;89277;-32
2023/10/20 06:57:29;;;;;;;11.57;8.32;;;8.10;99.90;;;;;;4976223;28;89799;-31
2023/10/20 06:59:54;;;;;;;8.07;7.25;;;8.10;99.90;;;;;;4976895;28;90287;-32
2023/10/20 07:02:20;;;;;;;12.05;8.77;;;8.10;99.90;;;;;;4976666;28;89676;-33
2023/10/20 07:04:46;;;;;;;7.85;6.82;;;8.10;99.90;;;;;;4977465;28;88422;-33
2023/10/20 07:07:13;;;;;;;9.45;7.68;;;8.10;99.90;;;;;;4977380;28;89698;-31
2023/10/20 07:09:40;;;;;;;8.93;6.77;;;8.00;99.90;;;;;;4976911;28;90110;-32
2023/10/20 07:12:06;;;;;;;9.50;6.93;;;8.10;99.90;;;;;;4977272;28;90113;-32
2023/10/20 07:14:34;;;;;;;7.63;6.93;;;8.10;99.90;;;;;;4977314;28;88561;-33
2023/10/20 07:17:03;;;;;;;8.82;7.20;;;8.10;99.90;;;;;;4977232;28;89613;-31
2023/10/20 07:19:30;;;;;;;11.73;6.22;;;8.10;99.90;;;;;;4977198;28;89459;-30
2023/10/20 07:21:56;;;;;;;7.50;5.97;;;8.10;99.90;;;;;;4957637;28;90112;-33
2023/10/20 07:24:23;;;;;;;8.73;6.65;;;8.10;99.90;;;;;;4976680;28;89520;-32
2023/10/20 07:26:49;;;;;;;10.85;8.70;;;8.10;99.90;;;;;;4976055;28;88378;-33
2023/10/20 07:29:14;;;;;;;12.23;9.38;;;8.10;99.90;;;;;;4973731;28;90567;-31
2023/10/20 07:31:42;;;;;;;12.45;6.97;;;8.10;99.90;;;;;;4975505;28;89066;-31
2023/10/20 07:34:09;;;;;;;8.17;7.33;;;8.10;99.90;;;;;;4975653;28;89591;-32
2023/10/20 07:36:35;;;;;;;9.98;7.55;;;8.10;99.90;;;;;;4957476;28;90420;-34
2023/10/20 07:39:01;;;;;;;7.57;6.85;;;8.10;99.90;;;;;;4976842;28;90655;-33
2023/10/20 07:41:27;;;;;;;10.10;8.35;;;8.10;99.90;;;;;;4975467;28;89605;-30
2023/10/20 07:43:52;;;;;;;10.98;8.23;;;8.10;99.90;;;;;;4976372;28;89897;-32
2023/10/20 07:46:21;;;;;;;8.63;7.72;;;8.10;99.90;;;;;;4977817;28;87933;-32
2023/10/20 07:48:47;;;;;;;6.78;6.22;;;8.10;99.90;;;;;;4975864;28;89843;-32
2023/10/20 07:51:12;;;;;;;11.40;6.85;;;8.10;99.90;;;;;;4976054;28;89565;-33
2023/10/20 07:53:38;;;;;;;6.75;5.88;;;8.10;99.90;;;;;;4975170;28;89452;-33
2023/10/20 07:56:04;;;;;;;6.50;5.32;;;8.10;99.90;;;;;;4968805;28;89608;-32
2023/10/20 07:58:31;;;;;;;5.65;4.93;;;8.10;99.90;;;;;;4975875;28;90377;-30
2023/10/20 08:00:56;;;;;;;7.95;6.13;;;8.10;99.90;;;;;;4957064;28;91246;-31
2023/10/20 08:03:23;;;;;;;15.63;7.82;;;8.10;99.90;;;;;;4975825;28;90321;-32
2023/10/20 08:05:48;;;;;;;7.80;5.82;;;8.10;99.90;;;;;;4974951;28;88907;-33
2023/10/20 08:08:14;;;;;;;6.78;6.07;;;8.10;99.90;;;;;;4975889;28;90118;-32
2023/10/20 08:10:40;;;;;;;5.60;5.10;;;8.10;99.90;;;;;;4975953;28;88566;-30
2023/10/20 08:13:05;;;;;;;5.90;5.40;;;8.10;99.90;;;;;;4974131;28;89607;-32
2023/10/20 08:15:36;;;;;;;7.10;4.50;;;8.10;99.90;;;;;;4975266;28;88492;-34
2023/10/20 08:18:02;;;;;;;6.93;4.30;;;8.10;99.90;;;;;;4976272;28;89672;-34
2023/10/20 08:20:27;;;;;;;8.90;6.13;;;8.00;99.90;;;;;;4976280;28;88476;-30
2023/10/20 08:22:53;;;;;;;4.55;3.70;;;8.00;99.90;;;;;;4975180;28;89804;-30
2023/10/20 08:25:18;;;;;;;5.40;4.90;;;8.00;99.90;;;;;;4975327;28;88942;-31
2023/10/20 08:27:50;;;;;;;6.05;4.78;;;8.10;99.90;;;;;;4975598;28;90410;-32
2023/10/20 08:30:16;;;;;;;4.97;4.50;;;8.00;99.90;;;;;;4978790;28;89780;-32
2023/10/20 08:32:42;;;;;;;5.65;3.70;;;8.00;99.90;;;;;;4978317;28;88646;-33
2023/10/20 08:35:08;;;;;;;5.47;4.72;;;8.10;99.90;;;;;;4966705;28;89484;-33
2023/10/20 08:37:36;;;;;;;7.13;4.60;;;8.00;99.90;;;;;;4978076;28;90224;-32
2023/10/20 08:40:02;;;;;;;2.63;2.43;;;8.00;99.90;;;;;;4979223;28;90096;-33
2023/10/20 08:42:29;;;;;;;4.50;3.67;;;8.00;99.90;;;;;;4979796;28;89321;-33
2023/10/20 08:44:56;;;;;;;3.63;3.33;;;8.00;99.90;;;;;;4979794;28;89663;-31
2023/10/20 08:47:23;;;;;;;2.97;2.67;;;8.00;99.90;;;;;;4978104;28;89827;-30
2023/10/20 08:49:49;;;;;;;3.88;3.50;;;8.00;99.90;;;;;;4978338;28;91772;-32
2023/10/20 08:52:16;;;;;;;5.50;3.40;;;7.90;99.90;;;;;;4979666;28;89646;-31
2023/10/20 08:54:41;;;;;;;2.80;2.60;;;8.00;99.90;;;;;;4978083;28;88401;-31
2023/10/20 08:57:08;;;;;;;2.92;2.63;;;8.00;99.90;;;;;;4979617;28;90252;-31
2023/10/20 08:59:35;;;;;;;2.72;2.53;;;8.00;99.90;;;;;;4976760;28;89770;-31
2023/10/20 09:02:01;;;;;;;2.95;2.63;;;8.00;99.90;;;;;;4961960;28;89278;-32
2023/10/20 09:04:27;;;;;;;3.17;2.88;;;8.00;99.90;;;;;;4979240;28;88670;-30
2023/10/20 09:06:53;;;;;;;3.28;2.97;;;7.90;99.90;;;;;;4979332;28;92439;-32
2023/10/20 09:09:20;;;;;;;2.75;2.55;;;8.00;99.90;;;;;;4977218;28;90025;-30
2023/10/20 09:11:46;;;;;;;2.90;2.55;;;8.00;99.90;;;;;;4978286;28;89897;-32
2023/10/20 09:14:14;;;;;;;2.47;2.28;;;8.00;99.90;;;;;;4977757;28;89227;-33
2023/10/20 09:16:40;;;;;;;2.60;2.40;;;8.00;99.90;;;;;;4978448;28;89703;-32
2023/10/20 09:19:09;;;;;;;2.13;1.92;;;7.90;99.90;;;;;;4978836;28;89263;-30
2023/10/20 09:21:34;;;;;;;2.58;2.33;;;7.90;99.90;;;;;;4977324;28;90279;-32
2023/10/20 09:24:08;;;;;;;2.55;2.35;;;7.90;99.90;;;;;;4978439;28;88688;-33
2023/10/20 09:26:38;;;;;;;4.43;4.07;;;7.90;99.90;;;;;;4977826;28;89582;-32
2023/10/20 09:29:05;;;;;;;5.03;2.15;;;7.80;99.90;;;;;;4978513;28;89373;-34
2023/10/20 09:31:32;;;;;;;2.50;2.28;;;7.90;99.90;;;;;;4978474;28;89850;-32
2023/10/20 09:33:58;;;;;;;2.03;1.88;;;7.90;99.90;;;;;;4940190;28;87665;-32
2023/10/20 09:36:25;;;;;;;2.53;2.33;;;7.80;99.90;;;;;;4975366;28;90613;-34
2023/10/20 09:38:55;;;;;;;2.38;2.17;;;7.80;99.90;;;;;;4977452;28;90177;-31
2023/10/20 09:41:25;;;;;;;7.03;2.33;;;7.80;99.90;;;;;;4977267;28;90469;-33
2023/10/20 09:44:07;;;;;;;2.20;2.00;;;7.80;99.90;;;;;;4978330;28;87576;-33
2023/10/20 09:46:54;;;;;;;2.25;1.63;;;7.80;99.90;;;;;;4965685;28;90236;-35
2023/10/20 09:49:28;;;;;;;1.40;1.30;;;7.80;99.90;;;;;;4977248;28;89698;-33
2023/10/20 09:51:56;;;;;;;4.20;2.38;;;7.70;99.90;;;;;;4977521;28;90168;-33
2023/10/20 09:54:25;;;;;;;2.10;2.00;;;7.70;99.90;;;;;;4977486;28;89747;-32
2023/10/20 09:56:53;;;;;;;2.08;1.70;;;7.70;99.90;;;;;;4977612;28;89861;-32
2023/10/20 09:59:27;;;;;;;2.05;1.60;;;7.70;99.90;;;;;;4978840;28;89295;-33
2023/10/20 10:01:53;;;;;;;1.65;1.55;;;7.70;99.90;;;;;;4965044;28;90931;-33
2023/10/20 10:04:25;;;;;;;2.53;1.75;;;7.80;99.90;;;;;;4976423;28;90782;-34
2023/10/20 10:06:51;;;;;;;1.23;1.13;;;7.70;99.90;;;;;;4977332;28;89609;-32
2023/10/20 10:09:18;;;;;;;1.50;1.40;;;7.70;99.90;;;;;;4977464;28;89689;-35
2023/10/20 10:11:45;;;;;;;3.03;2.80;;;7.70;99.90;;;;;;4977781;28;88524;-31
2023/10/20 10:14:25;;;;;;;2.22;2.05;;;7.70;99.90;;;;;;4977672;28;89277;-32
2023/10/20 10:16:55;;;;;;;1.60;1.38;;;7.70;99.90;;;;;;4976439;28;90405;-29
2023/10/20 10:19:25;;;;;;;1.05;0.90;;;7.70;99.90;;;;;;4977924;28;89928;-31
2023/10/20 10:21:53;;;;;;;1.42;1.25;;;7.70;99.90;;;;;;4977837;28;87867;-30
2023/10/20 10:24:23;;;;;;;1.58;1.08;;;7.70;99.90;;;;;;4976961;28;89419;-32
2023/10/20 10:27:06;;;;;;;6.97;1.75;;;7.60;99.90;;;;;;4976482;28;89839;-32
2023/10/20 10:30:11;;;;;;;1.70;1.60;;;7.70;99.90;;;;;;4974143;28;90670;-33
2023/10/20 10:32:48;;;;;;;1.38;1.30;;;7.60;99.90;;;;;;4974533;28;91703;-33
2023/10/20 10:35:17;;;;;;;;;;;7.60;99.90;;;;;;4976781;28;88015;-30
2023/10/20 10:37:42;;;;;;;1.55;1.33;;;7.60;99.90;;;;;;4977919;28;90653;-31
2023/10/20 10:40:10;;;;;;;2.13;1.70;;;7.60;99.90;;;;;;4976967;28;88752;-32
2023/10/20 10:42:47;;;;;;;1.27;1.07;;;7.60;99.90;;;;;;4977813;28;89086;-33
2023/10/20 10:45:24;;;;;;;1.70;1.55;;;7.60;99.90;;;;;;4977381;28;89867;-31
2023/10/20 10:48:12;;;;;;;2.38;1.60;;;7.60;99.90;;;;;;4977102;28;89925;-30
2023/10/20 10:50:38;;;;;;;;;;;7.60;99.90;;;;;;4976936;28;91010;-31
2023/10/20 10:53:04;;;;;;;1.25;1.10;;;7.50;99.90;;;;;;4977706;28;89100;-32
2023/10/20 10:55:31;;;;;;;1.50;1.35;;;7.50;99.90;;;;;;4976794;28;89937;-33
2023/10/20 10:58:00;;;;;;;1.05;1.05;;;7.50;99.90;;;;;;4975784;28;89803;-30
2023/10/20 11:00:27;;;;;;;1.75;1.20;;;7.50;99.90;;;;;;4977447;28;89916;-32
2023/10/20 11:02:53;;;;;;;1.38;0.80;;;7.50;99.90;;;;;;4976007;28;89543;-32
2023/10/20 11:05:19;;;;;;;1.17;1.08;;;7.50;99.90;;;;;;4977198;28;88075;-35
2023/10/20 11:08:04;;;;;;;0.95;0.95;;;7.50;99.90;;;;;;4975910;28;90816;-32
2023/10/20 11:10:34;;;;;;;1.10;0.80;;;7.50;99.90;;;;;;4976999;28;89776;-31
2023/10/20 11:13:05;;;;;;;2.13;1.33;;;7.50;99.90;;;;;;4977574;28;89873;-33
2023/10/20 11:15:32;;;;;;;0.73;0.73;;;7.50;99.90;;;;;;4976901;28;89483;-33
2023/10/20 11:18:00;;;;;;;1.42;1.33;;;7.50;99.90;;;;;;4976786;28;90860;-32
2023/10/20 11:20:37;;;;;;;3.60;0.83;;;7.50;99.90;;;;;;4965992;28;90319;-31
2023/10/20 11:23:07;;;;;;;1.90;1.55;;;7.50;99.90;;;;;;4958311;28;90280;-33
2023/10/20 11:25:32;;;;;;;0.80;0.73;;;7.40;99.90;;;;;;4976408;28;89796;-30
2023/10/20 11:27:58;;;;;;;1.23;1.13;;;7.40;99.90;;;;;;4976776;28;90209;-31
2023/10/20 11:30:37;;;;;;;1.90;1.45;;;7.50;99.90;;;;;;4958468;28;89901;-30
2023/10/20 11:33:06;;;;;;;1.40;1.30;;;7.50;99.90;;;;;;4958119;28;89511;-32
2023/10/20 11:35:32;;;;;;;2.05;0.90;;;7.40;99.90;;;;;;4976523;28;89350;-31
2023/10/20 11:37:58;;;;;;;1.00;0.88;;;7.50;99.90;;;;;;4975775;28;90132;-31
2023/10/20 11:40:26;;;;;;;1.15;1.05;;;7.50;99.90;;;;;;4976704;28;89783;-32
2023/10/20 11:42:52;;;;;;;2.00;1.90;;;7.50;99.90;;;;;;4943129;28;89659;-33
2023/10/20 11:45:18;;;;;;;1.55;1.45;;;7.50;99.90;;;;;;4975208;28;89501;-31
2023/10/20 11:47:44;;;;;;;1.25;1.17;;;7.50;99.90;;;;;;4975744;28;89907;-30
2023/10/20 11:50:10;;;;;;;1.45;1.20;;;7.40;99.90;;;;;;4975347;28;90041;-32
2023/10/20 11:52:40;;;;;;;1.30;1.20;;;7.40;99.90;;;;;;4976256;28;90342;-33
2023/10/20 11:55:09;;;;;;;1.20;1.10;;;7.40;99.90;;;;;;4975593;28;90743;-32
2023/10/20 11:57:35;;;;;;;0.95;0.80;;;7.40;99.90;;;;;;4976549;28;90234;-32
2023/10/20 12:00:07;;;;;;;1.70;1.15;;;7.40;99.90;;;;;;4975082;28;89839;-30
2023/10/20 12:02:33;;;;;;;0.98;0.85;;;7.30;99.90;;;;;;4976433;28;89650;-37
2023/10/20 12:05:00;;;;;;;1.13;1.02;;;7.40;99.90;;;;;;4974666;28;89641;-30
2023/10/20 12:07:26;;;;;;;0.70;0.70;;;7.40;99.90;;;;;;4976083;28;89932;-33
2023/10/20 12:09:51;;;;;;;0.90;0.82;;;7.40;99.90;;;;;;4969786;28;90754;-29
2023/10/20 12:12:17;;;;;;;2.58;1.02;;;7.30;99.90;;;;;;4974723;28;89626;-32
2023/10/20 12:14:44;;;;;;;0.40;0.40;;;7.30;99.90;;;;;;4975727;28;88854;-34
2023/10/20 12:17:10;;;;;;;0.73;0.73;;;7.30;99.90;;;;;;4975896;28;91001;-30
2023/10/20 12:19:35;;;;;;;1.13;1.13;;;7.40;99.90;;;;;;4975887;28;89554;-31
2023/10/20 12:22:01;;;;;;;1.98;1.80;;;7.40;99.90;;;;;;4975317;28;89341;-33
2023/10/20 12:24:27;;;;;;;1.38;1.00;;;7.30;99.90;;;;;;4975880;28;89149;-31
2023/10/20 12:26:55;;;;;;;0.80;0.80;;;7.40;99.90;;;;;;4925997;28;89898;-31
2023/10/20 12:29:22;;;;;;;0.90;0.90;;;7.40;99.90;;;;;;4973867;28;90591;-30
2023/10/20 12:31:51;;;;;;;1.55;1.45;;;7.40;99.90;;;;;;4975242;28;89421;-31
2023/10/20 12:34:17;;;;;;;2.78;1.42;;;7.40;99.90;;;;;;4909307;28;89110;-34
2023/10/20 12:36:42;;;;;;;0.93;0.90;;;7.40;99.90;;;;;;4956835;28;89922;-34
2023/10/20 12:39:09;;;;;;;0.80;0.80;;;7.30;99.90;;;;;;4976353;28;89437;-32
2023/10/20 12:41:38;;;;;;;0.70;0.70;;;7.30;99.90;;;;;;4975922;28;90207;-31
2023/10/20 12:44:04;;;;;;;0.95;0.95;;;7.30;99.90;;;;;;4975353;28;89395;-32
2023/10/20 12:46:29;;;;;;;1.10;1.00;;;7.30;99.90;;;;;;4972125;28;90193;-33
2023/10/20 12:48:55;;;;;;;0.93;0.93;;;7.30;99.90;;;;;;4975062;28;90536;-32
2023/10/20 12:51:21;;;;;;;1.20;0.85;;;7.40;99.90;;;;;;4976234;28;89172;-30
2023/10/20 12:53:46;;;;;;;0.85;0.85;;;7.40;99.90;;;;;;4975890;28;90310;-33
2023/10/20 12:56:12;;;;;;;0.85;0.73;;;7.40;99.90;;;;;;4975343;28;89947;-32
2023/10/20 12:58:40;;;;;;;0.52;0.50;;;7.40;99.90;;;;;;4974865;28;90730;-32
2023/10/20 13:01:06;;;;;;;0.70;0.60;;;7.40;99.90;;;;;;4971825;28;90453;-32
2023/10/20 13:03:32;;;;;;;0.90;0.70;;;7.40;99.90;;;;;;4970876;28;89245;-33
2023/10/20 13:05:58;;;;;;;1.08;0.80;;;7.40;99.90;;;;;;4975985;28;90061;-31
2023/10/20 13:08:26;;;;;;;2.53;1.40;;;7.30;99.90;;;;;;4974766;28;90192;-33
2023/10/20 13:10:52;;;;;;;;;;;7.30;99.90;;;;;;4975610;28;89562;-32
2023/10/20 13:13:18;;;;;;;0.80;0.80;;;7.30;99.90;;;;;;4977299;28;89200;-30
2023/10/20 13:15:44;;;;;;;1.10;1.00;;;7.30;99.90;;;;;;4976026;28;90899;-31
2023/10/20 13:18:13;;;;;;;0.93;0.93;;;7.30;99.90;;;;;;4979522;28;90078;-34
2023/10/20 13:20:39;;;;;;;0.68;0.68;;;7.30;99.90;;;;;;4978435;28;88404;-30